createdAt,value
2023-11-01T00:02:22.078Z,6.20
2023-11-01T00:04:50.157Z,6.20
2023-11-01T00:07:19.594Z,6.60
2023-11-01T00:09:47.657Z,5.70
2023-11-01T00:12:15.727Z,5.97
2023-11-01T00:14:43.811Z,7.33
2023-11-01T00:17:12.917Z,7.00
2023-11-01T00:19:41.083Z,6.30
2023-11-01T00:22:09.211Z,6.50
2023-11-01T00:24:44.196Z,6.67
2023-11-01T00:27:12.653Z,6.27
2023-11-01T00:29:40.890Z,6.30
2023-11-01T00:32:08.997Z,6.77
2023-11-01T00:34:37.122Z,6.07
2023-11-01T00:37:05.530Z,6.80
2023-11-01T00:39:33.661Z,7.20
2023-11-01T00:42:03.127Z,6.63
2023-11-01T00:44:31.199Z,7.10
2023-11-01T00:46:59.305Z,7.37
2023-11-01T00:49:27.391Z,7.47
2023-11-01T00:51:55.583Z,7.47
2023-11-01T00:54:23.627Z,9.00
2023-11-01T00:56:51.735Z,9.00
2023-11-01T00:59:21.194Z,9.60
2023-11-01T01:01:49.369Z,9.10
2023-11-01T01:04:17.525Z,10.27
2023-11-01T01:06:45.637Z,9.23
2023-11-01T01:09:13.725Z,10.10
2023-11-01T01:11:41.976Z,10.20
2023-11-01T01:14:10.133Z,9.60
2023-11-01T01:16:39.543Z,10.20
2023-11-01T01:19:07.655Z,11.37
2023-11-01T01:21:35.691Z,10.73
2023-11-01T01:24:04.758Z,11.30
2023-11-01T01:26:33.498Z,10.60
2023-11-01T01:29:01.595Z,10.30
2023-11-01T01:31:29.690Z,10.97
2023-11-01T01:33:59.245Z,11.67
2023-11-01T01:36:27.577Z,10.80
2023-11-01T01:38:55.677Z,11.90
2023-11-01T01:41:23.820Z,11.03
2023-11-01T01:43:51.946Z,11.70
2023-11-01T01:46:20.966Z,11.97
2023-11-01T01:48:49.876Z,12.40
2023-11-01T01:51:19.733Z,12.30
2023-11-01T01:53:49.543Z,12.37
2023-11-01T01:56:19.225Z,13.20
2023-11-01T01:58:47.967Z,12.33
2023-11-01T02:01:16.422Z,11.83
2023-11-01T02:03:44.605Z,11.87
2023-11-01T02:06:13.050Z,12.00
2023-11-01T02:08:43.073Z,12.10
2023-11-01T02:11:11.235Z,12.77
2023-11-01T02:13:39.372Z,12.77
2023-11-01T02:16:08.881Z,14.40
2023-11-01T02:18:36.974Z,13.10
2023-11-01T02:21:06.996Z,13.30
2023-11-01T02:23:37.130Z,13.40
2023-11-01T02:26:05.670Z,13.73
2023-11-01T02:28:33.738Z,13.60
2023-11-01T02:31:01.877Z,14.97
2023-11-01T02:33:30.057Z,13.57
2023-11-01T02:35:58.702Z,13.67
2023-11-01T02:38:26.847Z,14.80
2023-11-01T02:40:56.312Z,13.50
2023-11-01T02:43:24.391Z,14.77
2023-11-01T02:45:52.465Z,13.93
2023-11-01T02:48:20.585Z,14.47
2023-11-01T02:50:48.782Z,14.40
2023-11-01T02:53:16.886Z,14.67
2023-11-01T02:55:44.974Z,14.73
2023-11-01T02:58:14.360Z,15.43
2023-11-01T03:00:42.643Z,14.03
2023-11-01T03:03:10.729Z,15.90
2023-11-01T03:05:38.859Z,14.73
2023-11-01T03:08:07.030Z,15.50
2023-11-01T03:10:35.081Z,16.23
2023-11-01T03:13:03.114Z,16.90
2023-11-01T03:15:32.475Z,17.00
2023-11-01T03:18:00.584Z,16.17
2023-11-01T03:20:28.733Z,15.97
2023-11-01T03:22:56.996Z,18.00
2023-11-01T03:25:25.700Z,16.80
2023-11-01T03:27:53.756Z,16.80
2023-11-01T03:30:23.479Z,15.67
2023-11-01T03:32:52.973Z,18.30
2023-11-01T03:35:21.171Z,17.00
2023-11-01T03:37:49.226Z,18.27
2023-11-01T03:40:17.495Z,18.43
2023-11-01T03:42:45.575Z,18.70
2023-11-01T03:45:14.138Z,17.77
2023-11-01T03:47:42.239Z,18.50
2023-11-01T03:50:12.248Z,18.43
2023-11-01T03:52:40.391Z,20.50
2023-11-01T03:55:12.794Z,18.83
2023-11-01T03:57:40.961Z,19.80
2023-11-01T04:00:10.091Z,19.90
2023-11-01T04:02:38.472Z,20.77
2023-11-01T04:05:07.811Z,20.30
2023-11-01T04:07:37.267Z,21.77
2023-11-01T04:10:06.394Z,25.43
2023-11-01T04:12:34.408Z,27.50
2023-11-01T04:15:02.509Z,28.43
2023-11-01T04:17:30.574Z,25.53
2023-11-01T04:20:00.093Z,24.07
2023-11-01T04:22:29.259Z,25.00
2023-11-01T04:24:58.721Z,28.30
2023-11-01T04:27:27.412Z,28.20
2023-11-01T04:29:55.681Z,27.80
2023-11-01T04:32:23.781Z,25.50
2023-11-01T04:34:51.852Z,26.07
2023-11-01T04:37:20.069Z,25.50
2023-11-01T04:39:48.105Z,25.70
2023-11-01T04:42:18.239Z,24.20
2023-11-01T04:44:46.767Z,27.50
2023-11-01T04:47:15.190Z,25.40
2023-11-01T04:49:43.922Z,27.07
2023-11-01T04:52:12.219Z,26.17
2023-11-01T04:54:40.350Z,25.97
2023-11-01T04:57:08.422Z,26.70
2023-11-01T04:59:37.926Z,26.77
2023-11-01T05:02:06.131Z,26.50
2023-11-01T05:04:34.666Z,27.97
2023-11-01T05:07:02.733Z,30.27
2023-11-01T05:09:30.810Z,27.97
2023-11-01T05:11:59.226Z,28.53
2023-11-01T05:14:27.245Z,30.23
2023-11-01T05:16:57.544Z,27.57
2023-11-01T05:19:25.649Z,29.00
2023-11-01T05:21:53.730Z,27.50
2023-11-01T05:24:21.756Z,30.73
2023-11-01T05:26:49.826Z,33.23
2023-11-01T05:29:18.050Z,35.00
2023-11-01T05:31:46.179Z,31.17
2023-11-01T05:34:15.564Z,32.47
2023-11-01T05:36:43.571Z,35.50
2023-11-01T05:39:11.605Z,32.47
2023-11-01T05:41:39.712Z,32.80
2023-11-01T05:44:07.821Z,32.57
2023-11-01T05:46:35.947Z,33.07
2023-11-01T05:49:05.359Z,32.90
2023-11-01T05:51:34.769Z,22.97
2023-11-01T05:54:03.010Z,30.83
2023-11-01T05:56:31.031Z,29.47
2023-11-01T05:58:59.225Z,31.33
2023-11-01T06:01:27.353Z,31.47
2023-11-01T06:03:58.046Z,30.20
2023-11-01T06:06:26.346Z,29.87
2023-11-01T06:08:56.793Z,30.57
2023-11-01T06:11:25.729Z,34.10
2023-11-01T06:13:53.856Z,32.00
2023-11-01T06:16:22.266Z,29.47
2023-11-01T06:18:50.350Z,31.30
2023-11-01T06:21:18.465Z,33.17
2023-11-01T06:23:46.699Z,30.40
2023-11-01T06:26:17.666Z,28.87
2023-11-01T06:28:46.400Z,28.60
2023-11-01T06:31:15.306Z,29.30
2023-11-01T06:33:43.549Z,29.10
2023-11-01T06:36:13.016Z,28.37
2023-11-01T06:38:41.073Z,29.97
2023-11-01T06:41:09.203Z,29.27
2023-11-01T06:43:38.594Z,28.97
2023-11-01T06:46:06.704Z,27.80
2023-11-01T06:48:35.204Z,28.30
2023-11-01T06:51:03.347Z,29.80
2023-11-01T06:53:31.889Z,28.30
2023-11-01T06:55:59.944Z,29.70
2023-11-01T06:58:28.096Z,30.20
2023-11-01T07:00:57.529Z,27.67
2023-11-01T07:03:25.742Z,29.87
2023-11-01T07:05:53.936Z,28.63
2023-11-01T07:08:22.299Z,28.53
2023-11-01T07:10:51.048Z,29.17
2023-11-01T07:13:19.115Z,29.20
2023-11-01T07:15:47.204Z,27.00
2023-11-01T07:18:16.943Z,27.80
2023-11-01T07:20:45.452Z,27.70
2023-11-01T07:23:13.749Z,29.00
2023-11-01T07:25:41.792Z,28.93
2023-11-01T07:28:09.804Z,29.27
2023-11-01T07:30:37.809Z,23.50
2023-11-01T07:33:06.025Z,27.60
2023-11-01T07:35:35.453Z,25.57
2023-11-01T07:38:03.496Z,25.67
2023-11-01T07:40:31.605Z,25.70
2023-11-01T07:42:59.609Z,25.40
2023-11-01T07:45:27.656Z,25.70
2023-11-01T07:47:55.857Z,23.17
2023-11-01T07:50:23.927Z,25.17
2023-11-01T07:52:53.356Z,23.30
2023-11-01T07:55:22.029Z,23.50
2023-11-01T07:57:50.080Z,21.30
2023-11-01T08:00:18.840Z,21.67
2023-11-01T08:02:47.093Z,22.03
2023-11-01T08:05:15.239Z,21.60
2023-11-01T08:07:43.233Z,20.13
2023-11-01T08:10:13.049Z,20.50
2023-11-01T08:12:41.185Z,18.03
2023-11-01T08:15:10.483Z,18.37
2023-11-01T08:17:38.556Z,17.33
2023-11-01T08:20:08.095Z,17.47
2023-11-01T08:22:37.004Z,16.87
2023-11-01T08:25:06.117Z,16.03
2023-11-01T08:27:35.542Z,16.20
2023-11-01T08:30:03.604Z,14.80
2023-11-01T08:32:31.672Z,15.03
2023-11-01T08:34:59.752Z,14.80
2023-11-01T08:37:27.842Z,14.23
2023-11-01T08:39:55.873Z,13.53
2023-11-01T08:42:23.894Z,13.30
2023-11-01T08:44:53.279Z,12.07
2023-11-01T08:47:43.741Z,11.40
2023-11-01T08:50:13.960Z,9.87
2023-11-01T08:52:43.974Z,8.80
2023-11-01T08:55:13.967Z,8.77
2023-11-01T08:57:42.591Z,8.63
2023-11-01T09:00:14.954Z,7.50
2023-11-01T09:02:43.198Z,7.40
2023-11-01T09:05:11.351Z,7.30
2023-11-01T09:07:39.858Z,7.40
2023-11-01T09:10:10.052Z,6.53
2023-11-01T09:12:38.882Z,6.80
2023-11-01T09:15:08.222Z,5.77
2023-11-01T09:17:37.685Z,4.17
2023-11-01T09:20:07.534Z,5.60
2023-11-01T09:22:35.608Z,5.33
2023-11-01T09:25:04.173Z,5.47
2023-11-01T09:27:32.227Z,4.40
2023-11-01T09:30:00.347Z,4.67
2023-11-01T09:32:28.505Z,8.00
2023-11-01T09:34:57.949Z,4.10
2023-11-01T09:37:26.233Z,3.83
2023-11-01T09:39:54.245Z,4.60
2023-11-01T09:42:24.725Z,4.20
2023-11-01T09:44:58.505Z,3.20
2023-11-01T09:47:27.709Z,3.63
2023-11-01T09:49:58.211Z,6.10
2023-11-01T09:52:27.345Z,4.17
2023-11-01T09:54:55.563Z,2.90
2023-11-01T09:57:25.434Z,2.73
2023-11-01T09:59:54.351Z,3.87
2023-11-01T10:02:23.849Z,3.23
2023-11-01T10:04:52.417Z,3.50
2023-11-01T10:07:21.866Z,3.63
2023-11-01T10:09:51.089Z,2.83
2023-11-01T10:12:20.468Z,2.77
2023-11-01T10:14:49.035Z,2.97
2023-11-01T10:17:17.558Z,3.00
2023-11-01T10:19:45.648Z,2.70
2023-11-01T10:22:13.883Z,2.47
2023-11-01T10:24:44.748Z,2.47
2023-11-01T10:27:12.824Z,2.87
2023-11-01T10:29:45.937Z,2.80
2023-11-01T10:32:15.402Z,2.57
2023-11-01T10:34:43.804Z,2.60
2023-11-01T10:37:11.945Z,2.80
2023-11-01T10:39:41.264Z,2.87
2023-11-01T10:42:11.668Z,2.40
2023-11-01T10:44:40.484Z,3.00
2023-11-01T10:47:10.055Z,3.00
2023-11-01T10:49:39.348Z,2.80
2023-11-01T10:52:10.165Z,2.80
2023-11-01T10:54:38.743Z,3.27
2023-11-01T10:57:07.586Z,3.80
2023-11-01T10:59:55.337Z,3.70
2023-11-01T11:02:26.452Z,4.13
2023-11-01T11:05:06.970Z,4.77
2023-11-01T11:07:49.854Z,5.10
2023-11-01T11:10:25.451Z,5.10
2023-11-01T11:13:27.919Z,6.27
2023-11-01T11:16:04.229Z,7.50
2023-11-01T11:19:05.028Z,7.50
2023-11-01T11:22:03.286Z,8.57
2023-11-01T11:24:48.807Z,8.00
2023-11-01T11:27:51.310Z,10.87
2023-11-01T11:30:58.263Z,10.70
2023-11-01T11:33:27.756Z,11.70
2023-11-01T11:36:15.810Z,11.83
2023-11-01T11:38:51.681Z,12.10
2023-11-01T11:41:21.694Z,13.20
2023-11-01T11:44:09.680Z,13.73
2023-11-01T11:46:41.336Z,11.93
2023-11-01T11:49:23.118Z,14.10
2023-11-01T11:51:53.279Z,14.23
2023-11-01T11:54:22.579Z,14.57
2023-11-01T11:56:54.098Z,14.97
2023-11-01T11:59:25.569Z,14.87
2023-11-01T12:01:55.615Z,14.20
2023-11-01T12:04:30.119Z,14.87
2023-11-01T12:06:58.198Z,14.00
2023-11-01T12:09:26.995Z,14.13
2023-11-01T12:11:56.292Z,15.83
2023-11-01T12:14:25.748Z,14.20
2023-11-01T12:16:55.270Z,14.97
2023-11-01T12:19:25.820Z,12.77
2023-11-01T12:21:55.811Z,13.00
2023-11-01T12:24:26.836Z,12.67
2023-11-01T12:26:58.361Z,14.00
2023-11-01T12:29:32.931Z,13.67
2023-11-01T12:32:02.295Z,12.30
2023-11-01T12:34:32.407Z,12.70
2023-11-01T12:37:02.039Z,11.43
2023-11-01T12:39:30.205Z,11.80
2023-11-01T12:41:58.305Z,10.80
2023-11-01T12:44:26.431Z,10.60
2023-11-01T12:46:58.944Z,9.47
2023-11-01T12:49:26.972Z,9.00
2023-11-01T12:51:56.317Z,7.90
2023-11-01T12:54:24.349Z,9.93
2023-11-01T12:56:52.425Z,8.70
2023-11-01T12:59:20.441Z,7.90
2023-11-01T13:01:48.573Z,8.73
2023-11-01T13:04:16.621Z,7.47
2023-11-01T13:06:44.739Z,7.40
2023-11-01T13:09:15.869Z,7.20
2023-11-01T13:11:43.946Z,6.07
2023-11-01T13:14:12.317Z,7.63
2023-11-01T13:16:41.532Z,6.20
2023-11-01T13:19:09.760Z,9.60
2023-11-01T13:21:37.838Z,5.67
2023-11-01T13:24:07.085Z,6.23
2023-11-01T13:26:36.826Z,6.40
2023-11-01T13:29:04.953Z,6.03
2023-11-01T13:31:33.237Z,9.43
2023-11-01T13:34:01.437Z,5.13
2023-11-01T13:36:29.548Z,4.97
2023-11-01T13:38:57.597Z,4.13
2023-11-01T13:41:25.937Z,5.03
2023-11-01T13:43:55.478Z,4.63
2023-11-01T13:46:24.545Z,4.20
2023-11-01T13:48:52.882Z,4.50
2023-11-01T13:51:20.907Z,4.73
2023-11-01T13:53:48.984Z,5.10
2023-11-01T13:56:17.142Z,5.10
2023-11-01T13:58:51.312Z,3.73
2023-11-01T14:01:21.024Z,3.90
2023-11-01T14:03:51.645Z,4.27
2023-11-01T14:06:20.471Z,3.33
2023-11-01T14:08:48.502Z,3.50
2023-11-01T14:11:17.067Z,3.33
2023-11-01T14:13:45.704Z,3.60
2023-11-01T14:16:14.465Z,3.30
2023-11-01T14:18:43.959Z,4.50
2023-11-01T14:21:12.543Z,7.20
2023-11-01T14:23:40.940Z,6.50
2023-11-01T14:26:09.226Z,3.50
2023-11-01T14:28:37.285Z,2.77
2023-11-01T14:31:05.833Z,3.27
2023-11-01T14:33:36.025Z,2.80
2023-11-01T14:36:08.242Z,2.73
2023-11-01T14:38:36.683Z,3.10
2023-11-01T14:41:05.634Z,2.20
2023-11-01T14:43:33.681Z,2.60
2023-11-01T14:46:02.135Z,3.10
2023-11-01T14:48:30.294Z,3.17
2023-11-01T14:50:58.435Z,3.53
2023-11-01T14:53:27.899Z,3.40
2023-11-01T14:55:56.232Z,2.80
2023-11-01T14:58:24.421Z,2.80
2023-11-01T15:00:52.746Z,2.40
2023-11-01T15:03:21.087Z,2.53
2023-11-01T15:05:49.332Z,2.33
2023-11-01T15:08:17.388Z,2.67
2023-11-01T15:10:46.798Z,2.80
2023-11-01T15:13:15.757Z,2.63
2023-11-01T15:15:43.840Z,2.37
2023-11-01T15:18:11.974Z,3.40
2023-11-01T15:20:41.782Z,2.30
2023-11-01T15:23:09.919Z,3.83
2023-11-01T15:25:40.321Z,3.37
2023-11-01T15:28:09.822Z,3.00
2023-11-01T15:30:38.033Z,2.40
2023-11-01T15:33:06.099Z,6.07
2023-11-01T15:35:34.192Z,2.27
2023-11-01T15:38:02.223Z,2.97
2023-11-01T15:40:30.283Z,3.70
2023-11-01T15:42:58.305Z,3.23
2023-11-01T15:45:27.759Z,2.60
2023-11-01T15:47:56.131Z,2.80
2023-11-01T15:50:24.656Z,2.40
2023-11-01T15:52:52.768Z,2.80
2023-11-01T15:55:21.629Z,2.53
2023-11-01T15:57:49.984Z,2.40
2023-11-01T16:00:18.841Z,3.93
2023-11-01T16:02:48.584Z,4.23
2023-11-01T16:05:16.792Z,3.90
2023-11-01T16:07:47.271Z,5.67
2023-11-01T16:10:15.517Z,6.13
2023-11-01T16:12:43.595Z,4.33
2023-11-01T16:15:11.881Z,4.57
2023-11-01T16:17:39.989Z,4.47
2023-11-01T16:20:10.446Z,2.60
2023-11-01T16:22:38.474Z,2.93
2023-11-01T16:25:07.666Z,4.13
2023-11-01T16:27:35.739Z,3.57
2023-11-01T16:30:04.188Z,2.00
2023-11-01T16:32:33.035Z,2.60
2023-11-01T16:35:01.065Z,2.17
2023-11-01T16:37:30.873Z,2.07
2023-11-01T16:39:58.976Z,2.40
2023-11-01T16:42:27.087Z,2.30
2023-11-01T16:44:55.112Z,2.33
2023-11-01T16:47:23.197Z,2.23
2023-11-01T16:49:51.499Z,2.70
2023-11-01T16:52:19.560Z,2.70
2023-11-01T16:54:48.924Z,1.63
2023-11-01T16:57:17.260Z,2.60
2023-11-01T16:59:45.381Z,2.30
2023-11-01T17:02:13.404Z,6.47
2023-11-01T17:04:41.611Z,2.97
2023-11-01T17:07:09.889Z,2.77
2023-11-01T17:09:37.921Z,2.40
2023-11-01T17:12:08.525Z,2.47
2023-11-01T17:14:36.615Z,2.80
2023-11-01T17:17:06.418Z,2.77
2023-11-01T17:19:34.499Z,3.50
2023-11-01T17:22:02.575Z,2.50
2023-11-01T17:24:30.605Z,2.83
2023-11-01T17:26:59.195Z,2.70
2023-11-01T17:29:32.966Z,2.93
2023-11-01T17:32:01.145Z,2.20
2023-11-01T17:34:31.463Z,2.57
2023-11-01T17:37:00.873Z,3.53
2023-11-01T17:39:31.290Z,3.37
2023-11-01T17:42:01.445Z,5.10
2023-11-01T17:44:35.146Z,2.97
2023-11-01T17:47:06.753Z,2.77
2023-11-01T17:49:52.950Z,2.40
2023-11-01T17:52:36.148Z,3.27
2023-11-01T17:55:07.665Z,2.67
2023-11-01T17:57:37.240Z,3.43
2023-11-01T18:00:08.155Z,2.80
2023-11-01T18:03:18.382Z,3.63
2023-11-01T18:05:48.486Z,2.83
2023-11-01T18:08:21.462Z,2.87
2023-11-01T18:10:51.911Z,3.00
2023-11-01T18:13:22.381Z,3.20
2023-11-01T18:15:55.183Z,2.50
2023-11-01T18:18:45.455Z,2.80
2023-11-01T18:21:19.339Z,2.20
2023-11-01T18:23:56.552Z,2.60
2023-11-01T18:26:25.340Z,5.33
2023-11-01T18:28:55.054Z,4.23
2023-11-01T18:31:27.156Z,3.70
2023-11-01T18:34:02.909Z,3.13
2023-11-01T18:36:38.057Z,3.10
2023-11-01T18:39:09.679Z,2.77
2023-11-01T18:41:39.578Z,2.47
2023-11-01T18:44:23.137Z,2.60
2023-11-01T18:46:53.461Z,2.90
2023-11-01T18:49:50.928Z,2.27
2023-11-01T18:52:19.576Z,2.17
2023-11-01T18:54:49.189Z,2.43
2023-11-01T18:57:24.433Z,3.50
2023-11-01T18:59:52.693Z,2.40
2023-11-01T19:03:09.329Z,3.43
2023-11-01T19:05:40.937Z,4.37
2023-11-01T19:08:09.173Z,2.67
2023-11-01T19:10:40.106Z,4.17
2023-11-01T19:13:08.622Z,3.37
2023-11-01T19:16:15.963Z,2.80
2023-11-01T19:18:46.680Z,6.00
2023-11-01T19:21:16.292Z,5.67
2023-11-01T19:23:47.059Z,3.40
2023-11-01T19:26:16.320Z,4.30
2023-11-01T19:28:44.876Z,3.10
2023-11-01T19:31:13.756Z,2.83
2023-11-01T19:33:41.874Z,2.73
2023-11-01T19:36:15.704Z,2.40
2023-11-01T19:38:46.216Z,2.80
2023-11-01T19:41:14.894Z,7.80
2023-11-01T19:43:43.237Z,3.00
2023-11-01T19:46:11.371Z,2.43
2023-11-01T19:48:42.125Z,2.27
2023-11-01T19:51:11.215Z,2.40
2023-11-01T19:53:39.300Z,2.00
2023-11-01T19:56:08.766Z,1.90
2023-11-01T19:58:36.946Z,2.10
2023-11-01T20:01:05.287Z,2.07
2023-11-01T20:03:33.500Z,2.80
2023-11-01T20:06:01.779Z,1.90
2023-11-01T20:08:29.842Z,1.77
2023-11-01T20:10:57.879Z,1.93
2023-11-01T20:13:28.588Z,2.00
2023-11-01T20:15:57.266Z,1.83
2023-11-01T20:18:25.874Z,2.60
2023-11-01T20:20:54.253Z,2.27
2023-11-01T20:23:22.299Z,2.03
2023-11-01T20:25:50.374Z,2.17
2023-11-01T20:28:19.769Z,2.50
2023-11-01T20:30:49.628Z,2.73
2023-11-01T20:33:17.847Z,2.60
2023-11-01T20:35:46.012Z,2.40
2023-11-01T20:38:14.116Z,2.10
2023-11-01T20:40:42.146Z,2.60
2023-11-01T20:43:11.265Z,2.40
2023-11-01T20:45:39.368Z,2.23
2023-11-01T20:48:09.441Z,3.10
2023-11-01T20:50:37.913Z,2.13
2023-11-01T20:53:06.042Z,2.13
2023-11-01T20:55:35.146Z,2.00
2023-11-01T20:58:04.767Z,1.77
2023-11-01T21:00:32.956Z,2.03
2023-11-01T21:03:01.219Z,1.93
2023-11-01T21:05:30.742Z,2.07
2023-11-01T21:08:00.345Z,2.00
2023-11-01T21:10:29.928Z,1.67
2023-11-01T21:12:58.183Z,1.97
2023-11-01T21:15:26.389Z,2.07
2023-11-01T21:17:54.665Z,1.90
2023-11-01T21:20:23.224Z,2.70
2023-11-01T21:22:52.714Z,4.67
2023-11-01T21:25:22.923Z,1.90
2023-11-01T21:27:51.135Z,2.00
2023-11-01T21:30:19.364Z,2.30
2023-11-01T21:32:49.765Z,2.40
2023-11-01T21:35:28.605Z,2.07
2023-11-01T21:38:04.518Z,2.80
2023-11-01T21:40:32.971Z,2.57
2023-11-01T21:43:01.534Z,1.93
2023-11-01T21:45:49.527Z,2.20
2023-11-01T21:48:21.278Z,2.33
2023-11-01T21:50:56.082Z,1.67
2023-11-01T21:53:25.840Z,2.67
2023-11-01T21:55:56.058Z,1.90
2023-11-01T21:58:26.585Z,1.87
2023-11-01T22:00:59.310Z,1.87
2023-11-01T22:03:42.921Z,1.80
2023-11-01T22:06:13.409Z,1.93
2023-11-01T22:08:57.668Z,1.70
2023-11-01T22:11:25.999Z,1.60
2023-11-01T22:13:54.158Z,2.03
2023-11-01T22:16:28.897Z,1.87
2023-11-01T22:18:58.995Z,1.73
2023-11-01T22:21:32.826Z,1.80
2023-11-01T22:24:03.609Z,1.90
2023-11-01T22:26:32.140Z,2.23
2023-11-01T22:29:04.028Z,1.60
2023-11-01T22:31:50.260Z,1.73
2023-11-01T22:34:18.829Z,1.70
2023-11-01T22:36:49.415Z,2.00
2023-11-01T22:39:38.160Z,1.57
2023-11-01T22:42:07.005Z,1.87
2023-11-01T22:44:35.179Z,1.37
2023-11-01T22:47:03.285Z,1.73
2023-11-01T22:49:31.344Z,1.40
2023-11-01T22:52:01.532Z,1.60
2023-11-01T22:54:31.111Z,1.60
2023-11-01T22:56:59.295Z,2.20
2023-11-01T22:59:27.470Z,1.97
2023-11-01T23:01:55.537Z,1.60
2023-11-01T23:04:23.853Z,1.60
2023-11-01T23:06:52.181Z,1.50
2023-11-01T23:09:20.410Z,1.57
2023-11-01T23:11:50.022Z,1.70
2023-11-01T23:14:18.061Z,1.53
2023-11-01T23:16:46.118Z,1.63
2023-11-01T23:19:14.424Z,1.73
2023-11-01T23:21:42.521Z,1.93
2023-11-01T23:24:11.315Z,1.63
2023-11-01T23:26:53.297Z,1.63
2023-11-01T23:29:24.418Z,1.23
2023-11-01T23:31:53.275Z,1.53
2023-11-01T23:34:45.312Z,1.33
2023-11-01T23:37:22.741Z,1.53
2023-11-01T23:39:52.059Z,1.30
2023-11-01T23:42:22.187Z,1.77
2023-11-01T23:44:53.599Z,1.50
2023-11-01T23:47:38.957Z,1.30
2023-11-01T23:50:19.393Z,1.63
2023-11-01T23:52:47.733Z,1.50
2023-11-01T23:55:15.785Z,1.73
2023-11-01T23:57:45.408Z,1.40
